createdAt,value
2023-03-30T00:01:56.608Z,-1.78
2023-03-30T00:04:27.311Z,-1.95
2023-03-30T00:06:54.727Z,-1.85
2023-03-30T00:09:22.872Z,-1.85
2023-03-30T00:11:50.265Z,-1.92
2023-03-30T00:14:18.378Z,-1.92
2023-03-30T00:16:45.246Z,-1.93
2023-03-30T00:19:12.254Z,-1.95
2023-03-30T00:21:39.290Z,-1.94
2023-03-30T00:24:06.358Z,-2.06
2023-03-30T00:26:33.477Z,-2.06
2023-03-30T00:29:00.260Z,-2.08
2023-03-30T00:31:27.689Z,-2.10
2023-03-30T00:33:54.542Z,-2.16
2023-03-30T00:36:22.579Z,-2.04
2023-03-30T00:38:49.526Z,-2.14
2023-03-30T00:41:16.766Z,-2.15
2023-03-30T00:44:04.854Z,-2.21
2023-03-30T00:46:32.288Z,-2.25
2023-03-30T00:49:08.845Z,-2.41
2023-03-30T00:51:39.078Z,-2.36
2023-03-30T00:54:16.837Z,-2.37
2023-03-30T00:56:43.902Z,-2.47
2023-03-30T00:59:11.289Z,-2.34
2023-03-30T01:01:40.581Z,-2.36
2023-03-30T01:04:09.922Z,-2.48
2023-03-30T01:06:40.350Z,-2.34
2023-03-30T01:09:08.742Z,-2.34
2023-03-30T01:11:36.052Z,-2.55
2023-03-30T01:14:10.126Z,-2.42
2023-03-30T01:16:55.908Z,-2.38
2023-03-30T01:19:44.810Z,-2.45
2023-03-30T01:22:39.692Z,-2.52
2023-03-30T01:25:45.438Z,-2.53
2023-03-30T01:28:37.305Z,-2.57
2023-03-30T01:31:25.796Z,-2.66
2023-03-30T01:34:40.092Z,-2.76
2023-03-30T01:37:15.958Z,-2.67
2023-03-30T01:39:54.979Z,-2.71
2023-03-30T01:42:39.930Z,-2.71
2023-03-30T01:45:13.724Z,-2.71
2023-03-30T01:47:59.246Z,-2.76
2023-03-30T01:50:31.987Z,-2.81
2023-03-30T01:53:10.410Z,-2.79
2023-03-30T01:56:00.711Z,-2.76
2023-03-30T01:58:36.155Z,-3.02
2023-03-30T02:01:06.924Z,-2.76
2023-03-30T02:03:38.984Z,-2.84
2023-03-30T02:06:15.465Z,-2.89
2023-03-30T02:08:44.895Z,-2.87
2023-03-30T02:11:12.952Z,-2.90
2023-03-30T02:13:42.453Z,-2.86
2023-03-30T02:16:15.601Z,-2.89
2023-03-30T02:18:45.678Z,-2.97
2023-03-30T02:21:13.197Z,-3.02
2023-03-30T02:23:45.401Z,-3.09
2023-03-30T02:26:13.993Z,-3.09
2023-03-30T02:28:40.978Z,-3.15
2023-03-30T02:31:16.459Z,-3.20
2023-03-30T02:34:02.738Z,-3.17
2023-03-30T02:36:45.624Z,-3.41
2023-03-30T02:39:50.747Z,-3.15
2023-03-30T02:42:50.580Z,-3.32
2023-03-30T02:45:43.053Z,-3.22
2023-03-30T02:48:28.361Z,-3.34
2023-03-30T02:51:39.126Z,-3.48
2023-03-30T02:54:30.750Z,-3.48
2023-03-30T02:57:34.248Z,-3.42
2023-03-30T03:00:36.288Z,-3.41
2023-03-30T03:03:12.833Z,-3.46
2023-03-30T03:05:42.941Z,-3.43
2023-03-30T03:08:14.884Z,-3.42
2023-03-30T03:10:42.951Z,-3.43
2023-03-30T03:13:11.029Z,-3.47
2023-03-30T03:15:44.917Z,-3.47
2023-03-30T03:18:12.972Z,-3.44
2023-03-30T03:20:41.216Z,-3.44
2023-03-30T03:23:08.542Z,-3.51
2023-03-30T03:25:48.645Z,-3.66
2023-03-30T03:28:31.338Z,-3.56
2023-03-30T03:31:06.884Z,-3.71
2023-03-30T03:33:34.853Z,-3.66
2023-03-30T03:36:12.254Z,-3.76
2023-03-30T03:39:01.158Z,-3.64
2023-03-30T03:41:28.581Z,-3.69
2023-03-30T03:43:55.640Z,-3.60
2023-03-30T03:46:22.662Z,-3.72
2023-03-30T03:48:49.791Z,-3.77
2023-03-30T03:51:17.037Z,-3.72
2023-03-30T03:53:44.072Z,-3.71
2023-03-30T03:56:14.578Z,-3.71
2023-03-30T03:58:41.606Z,-3.70
2023-03-30T04:03:35.635Z,-3.76
2023-03-30T04:06:02.860Z,-3.69
2023-03-30T04:08:30.529Z,-3.68
2023-03-30T04:11:08.284Z,-3.81
2023-03-30T04:14:04.543Z,-3.61
2023-03-30T04:16:57.889Z,-3.58
2023-03-30T04:19:43.581Z,-3.63
2023-03-30T04:22:26.322Z,-3.62
2023-03-30T04:25:07.041Z,-3.55
2023-03-30T04:28:05.194Z,-3.53
2023-03-30T04:31:13.112Z,-3.49
2023-03-30T04:33:52.273Z,-3.46
2023-03-30T04:36:38.115Z,-3.51
2023-03-30T04:39:37.546Z,-3.48
2023-03-30T04:42:04.733Z,-3.39
2023-03-30T04:44:43.072Z,-3.33
2023-03-30T04:47:21.567Z,-3.24
2023-03-30T04:50:16.087Z,-3.29
2023-03-30T04:53:03.484Z,-3.08
2023-03-30T04:55:30.217Z,-2.95
2023-03-30T04:58:22.112Z,-2.84
2023-03-30T05:01:07.519Z,-2.75
2023-03-30T05:03:49.864Z,-2.52
2023-03-30T05:06:28.010Z,-2.50
2023-03-30T05:09:14.965Z,-2.48
2023-03-30T05:12:04.976Z,-2.30
2023-03-30T05:14:44.122Z,-2.23
2023-03-30T05:17:33.855Z,-1.91
2023-03-30T05:20:18.407Z,-1.77
2023-03-30T05:23:03.498Z,-1.66
2023-03-30T05:25:50.498Z,-1.49
2023-03-30T05:28:36.108Z,-1.44
2023-03-30T05:31:38.193Z,-1.37
2023-03-30T05:34:31.460Z,-1.37
2023-03-30T05:37:11.555Z,-1.24
2023-03-30T05:39:43.624Z,-1.16
2023-03-30T05:42:36.876Z,-1.00
2023-03-30T05:45:30.214Z,-0.94
2023-03-30T05:48:17.613Z,-0.85
2023-03-30T05:51:08.400Z,-0.64
2023-03-30T05:53:48.554Z,-0.52
2023-03-30T05:56:37.402Z,-0.26
2023-03-30T05:59:37.522Z,-0.02
2023-03-30T06:02:17.893Z,0.17
2023-03-30T06:04:46.596Z,0.36
2023-03-30T06:07:13.910Z,0.54
2023-03-30T06:09:40.804Z,0.68
2023-03-30T06:12:17.053Z,0.83
2023-03-30T06:14:44.202Z,0.82
2023-03-30T06:17:31.824Z,1.19
2023-03-30T06:19:59.063Z,1.37
2023-03-30T06:22:28.019Z,1.63
2023-03-30T06:25:23.996Z,1.91
2023-03-30T06:27:52.374Z,1.98
2023-03-30T06:30:20.676Z,2.30
2023-03-30T06:32:51.857Z,2.50
2023-03-30T06:35:24.351Z,2.66
2023-03-30T06:37:52.933Z,2.84
2023-03-30T06:40:21.581Z,3.07
2023-03-30T06:42:51.706Z,3.21
2023-03-30T06:45:39.819Z,3.45
2023-03-30T06:48:07.452Z,3.52
2023-03-30T06:50:38.753Z,3.77
2023-03-30T06:53:23.323Z,4.10
2023-03-30T06:55:57.032Z,4.29
2023-03-30T06:58:26.250Z,4.54
2023-03-30T07:00:53.906Z,4.68
2023-03-30T07:03:45.572Z,4.91
2023-03-30T07:06:22.707Z,4.98
2023-03-30T07:08:49.862Z,5.18
2023-03-30T07:11:22.485Z,5.50
2023-03-30T07:13:51.185Z,5.65
2023-03-30T07:16:18.576Z,5.60
2023-03-30T07:18:47.044Z,5.82
2023-03-30T07:21:14.413Z,6.04
2023-03-30T07:23:43.432Z,6.11
2023-03-30T07:26:19.535Z,6.22
2023-03-30T07:28:58.494Z,6.48
2023-03-30T07:31:26.421Z,6.66
2023-03-30T07:33:54.949Z,6.87
2023-03-30T07:36:25.088Z,7.08
2023-03-30T07:38:52.803Z,7.25
2023-03-30T07:41:20.042Z,7.38
2023-03-30T07:43:52.389Z,7.33
2023-03-30T07:46:22.609Z,7.28
2023-03-30T07:48:52.994Z,7.05
2023-03-30T07:51:20.316Z,6.82
2023-03-30T07:54:06.814Z,6.74
2023-03-30T07:56:53.841Z,6.88
2023-03-30T07:59:23.745Z,7.24
2023-03-30T08:01:54.444Z,7.46
2023-03-30T08:04:56.672Z,7.44
2023-03-30T08:07:45.023Z,7.58
2023-03-30T08:10:18.143Z,7.41
2023-03-30T08:12:44.949Z,7.69
2023-03-30T08:15:12.216Z,7.91
2023-03-30T08:17:39.161Z,8.08
2023-03-30T08:20:10.995Z,8.16
2023-03-30T08:22:38.347Z,7.85
2023-03-30T08:25:05.762Z,8.04
2023-03-30T08:27:33.058Z,8.11
2023-03-30T08:30:00.376Z,8.18
2023-03-30T08:32:27.332Z,8.32
2023-03-30T08:34:55.275Z,8.31
2023-03-30T08:37:22.864Z,8.31
2023-03-30T08:39:49.711Z,8.38
2023-03-30T08:42:31.790Z,8.51
2023-03-30T08:45:05.507Z,8.71
2023-03-30T08:47:40.253Z,8.27
2023-03-30T08:50:36.884Z,8.15
2023-03-30T08:53:07.401Z,8.03
2023-03-30T08:55:47.466Z,8.23
2023-03-30T08:58:32.967Z,8.16
2023-03-30T09:01:29.392Z,8.14
2023-03-30T09:04:04.029Z,7.93
2023-03-30T09:06:49.193Z,8.09
2023-03-30T09:09:28.695Z,7.99
2023-03-30T09:12:06.099Z,8.14
2023-03-30T09:14:37.905Z,8.45
2023-03-30T09:17:15.381Z,8.52
2023-03-30T09:19:57.577Z,8.70
2023-03-30T09:22:41.034Z,8.71
2023-03-30T09:25:28.213Z,8.85
2023-03-30T09:28:01.051Z,8.98
2023-03-30T09:30:41.166Z,9.02
2023-03-30T09:33:30.936Z,9.10
2023-03-30T09:36:10.265Z,9.07
2023-03-30T09:38:41.869Z,9.08
2023-03-30T09:42:00.237Z,9.08
2023-03-30T09:44:33.789Z,9.41
2023-03-30T09:47:02.242Z,9.47
2023-03-30T09:49:38.308Z,9.34
2023-03-30T09:52:08.395Z,9.49
2023-03-30T09:54:40.903Z,8.83
2023-03-30T09:57:43.398Z,9.49
2023-03-30T10:00:31.394Z,9.62
2023-03-30T10:03:04.694Z,9.84
2023-03-30T10:05:34.135Z,9.77
2023-03-30T10:08:07.508Z,9.67
2023-03-30T10:10:36.784Z,9.65
2023-03-30T10:13:16.699Z,9.85
2023-03-30T10:15:48.484Z,9.96
2023-03-30T10:18:18.692Z,10.13
2023-03-30T10:20:53.691Z,9.87
2023-03-30T10:23:23.097Z,10.16
2023-03-30T10:25:52.365Z,10.38
2023-03-30T10:28:31.560Z,10.29
2023-03-30T10:31:03.153Z,10.29
2023-03-30T10:33:31.866Z,10.39
2023-03-30T10:36:03.589Z,10.33
2023-03-30T10:38:37.598Z,10.43
2023-03-30T10:41:17.214Z,10.62
2023-03-30T10:43:45.264Z,10.54
2023-03-30T10:46:20.091Z,10.76
2023-03-30T10:49:02.734Z,10.56
2023-03-30T10:51:36.168Z,10.78
2023-03-30T10:54:15.198Z,11.00
2023-03-30T10:56:49.600Z,10.93
2023-03-30T11:00:10.925Z,10.65
2023-03-30T11:02:59.586Z,10.88
2023-03-30T11:05:35.798Z,10.95
2023-03-30T11:08:26.048Z,10.92
2023-03-30T11:10:55.512Z,11.01
2023-03-30T11:13:29.324Z,10.88
2023-03-30T11:16:17.078Z,10.99
2023-03-30T11:18:57.641Z,10.99
2023-03-30T11:21:30.951Z,11.19
2023-03-30T11:24:04.799Z,10.96
2023-03-30T11:26:42.346Z,11.03
2023-03-30T11:29:48.146Z,11.09
2023-03-30T11:32:37.739Z,10.68
2023-03-30T11:35:30.287Z,10.98
2023-03-30T11:38:03.517Z,11.24
2023-03-30T11:40:44.281Z,11.32
2023-03-30T11:43:13.567Z,11.37
2023-03-30T11:46:16.176Z,11.54
2023-03-30T11:49:01.390Z,11.59
2023-03-30T11:51:34.182Z,11.67
2023-03-30T11:54:22.704Z,11.81
2023-03-30T11:57:13.346Z,11.69
2023-03-30T11:59:40.737Z,11.86
2023-03-30T12:02:26.521Z,11.93
2023-03-30T12:05:01.512Z,11.82
2023-03-30T12:07:52.584Z,11.97
2023-03-30T12:10:32.398Z,12.03
2023-03-30T12:13:00.744Z,11.89
2023-03-30T12:16:09.161Z,11.89
2023-03-30T12:19:06.653Z,11.70
2023-03-30T12:21:48.492Z,11.38
2023-03-30T12:24:29.583Z,11.72
2023-03-30T12:27:05.102Z,11.69
2023-03-30T12:32:26.349Z,11.85
2023-03-30T12:34:55.579Z,11.85
2023-03-30T12:37:28.584Z,11.93
2023-03-30T12:40:14.780Z,11.97
2023-03-30T12:42:55.792Z,12.06
2023-03-30T12:45:32.254Z,12.13
2023-03-30T12:48:17.069Z,12.21
2023-03-30T12:51:02.255Z,12.27
2023-03-30T12:53:41.749Z,12.33
2023-03-30T12:56:33.351Z,12.41
2023-03-30T12:59:00.229Z,12.52
2023-03-30T13:01:46.330Z,12.53
2023-03-30T13:04:21.816Z,12.44
2023-03-30T13:06:57.283Z,12.44
2023-03-30T13:09:27.378Z,12.50
2023-03-30T13:11:54.409Z,12.52
2023-03-30T13:14:30.448Z,12.28
2023-03-30T13:17:00.148Z,12.37
2023-03-30T13:19:33.161Z,12.40
2023-03-30T13:22:03.580Z,12.54
2023-03-30T13:24:30.626Z,12.61
2023-03-30T13:27:19.489Z,12.60
2023-03-30T13:30:03.918Z,12.44
2023-03-30T13:32:40.118Z,12.52
2023-03-30T13:35:10.122Z,12.50
2023-03-30T13:37:55.814Z,12.62
2023-03-30T13:40:41.404Z,12.60
2023-03-30T13:43:34.072Z,12.41
2023-03-30T13:46:27.170Z,12.46
2023-03-30T13:49:03.065Z,12.43
2023-03-30T13:51:31.838Z,12.55
2023-03-30T13:54:03.762Z,12.34
2023-03-30T13:56:33.590Z,12.38
2023-03-30T13:59:17.093Z,12.47
2023-03-30T14:01:52.815Z,12.46
2023-03-30T14:04:20.645Z,12.61
2023-03-30T14:06:51.398Z,12.54
2023-03-30T14:09:25.035Z,12.61
2023-03-30T14:12:02.717Z,12.66
2023-03-30T14:14:30.101Z,12.53
2023-03-30T14:17:00.365Z,12.53
2023-03-30T14:20:11.519Z,12.65
2023-03-30T14:22:43.168Z,12.65
2023-03-30T14:25:24.285Z,12.64
2023-03-30T14:27:51.394Z,12.60
2023-03-30T14:30:29.733Z,12.49
2023-03-30T14:33:12.352Z,12.54
2023-03-30T14:35:46.768Z,12.43
2023-03-30T14:38:37.438Z,12.40
2023-03-30T14:41:25.095Z,12.48
2023-03-30T14:43:56.269Z,12.52
2023-03-30T14:46:32.625Z,12.23
2023-03-30T14:48:59.620Z,12.56
2023-03-30T14:51:37.964Z,12.26
2023-03-30T14:54:06.701Z,12.59
2023-03-30T14:56:34.131Z,12.64
2023-03-30T14:59:01.874Z,12.64
2023-03-30T15:01:33.445Z,12.57
2023-03-30T15:04:07.699Z,12.48
2023-03-30T15:06:36.948Z,12.39
2023-03-30T15:09:09.910Z,12.43
2023-03-30T15:11:39.848Z,12.49
2023-03-30T15:14:09.847Z,12.46
2023-03-30T15:16:37.900Z,12.43
2023-03-30T15:19:32.440Z,12.27
2023-03-30T15:22:03.471Z,12.19
2023-03-30T15:24:37.590Z,12.15
2023-03-30T15:27:07.772Z,12.10
2023-03-30T15:29:34.902Z,12.00
2023-03-30T15:32:11.596Z,12.00
2023-03-30T15:35:17.320Z,11.92
2023-03-30T15:37:56.391Z,11.88
2023-03-30T15:40:28.703Z,11.83
2023-03-30T15:43:11.531Z,11.66
2023-03-30T15:45:38.793Z,11.63
2023-03-30T15:48:11.820Z,11.56
2023-03-30T15:50:39.377Z,11.41
2023-03-30T15:53:13.855Z,11.33
2023-03-30T15:55:41.530Z,11.35
2023-03-30T15:58:13.841Z,11.07
2023-03-30T16:00:42.214Z,11.25
2023-03-30T16:03:13.031Z,11.17
2023-03-30T16:05:41.993Z,11.16
2023-03-30T16:08:08.769Z,11.07
2023-03-30T16:10:37.616Z,11.03
2023-03-30T16:13:07.221Z,11.00
2023-03-30T16:15:34.317Z,10.90
2023-03-30T16:18:01.230Z,10.85
2023-03-30T16:20:32.478Z,10.74
2023-03-30T16:23:04.635Z,10.65
2023-03-30T16:25:44.202Z,10.49
2023-03-30T16:28:17.503Z,10.45
2023-03-30T16:30:48.062Z,10.37
2023-03-30T16:33:15.429Z,10.24
2023-03-30T16:35:42.822Z,10.10
2023-03-30T16:38:16.418Z,9.99
2023-03-30T16:40:51.427Z,9.87
2023-03-30T16:43:18.461Z,9.77
2023-03-30T16:45:45.456Z,9.66
2023-03-30T16:48:15.171Z,9.55
2023-03-30T16:50:54.893Z,9.48
2023-03-30T16:53:22.039Z,9.29
2023-03-30T16:55:49.395Z,9.22
2023-03-30T16:58:17.364Z,9.15
2023-03-30T17:00:49.756Z,8.98
2023-03-30T17:03:18.204Z,8.93
2023-03-30T17:05:48.676Z,8.84
2023-03-30T17:08:27.802Z,8.73
2023-03-30T17:10:59.713Z,8.56
2023-03-30T17:13:27.804Z,8.50
2023-03-30T17:15:54.894Z,8.39
2023-03-30T17:18:24.135Z,8.28
2023-03-30T17:20:53.788Z,8.15
2023-03-30T17:23:23.484Z,8.01
2023-03-30T17:25:52.075Z,7.88
2023-03-30T17:28:28.362Z,7.71
2023-03-30T17:30:58.902Z,7.51
2023-03-30T17:33:26.447Z,7.30
2023-03-30T17:35:56.489Z,7.32
2023-03-30T17:38:24.220Z,7.19
2023-03-30T17:40:51.581Z,7.10
2023-03-30T17:43:18.844Z,6.98
2023-03-30T17:45:47.062Z,6.94
2023-03-30T17:48:17.712Z,6.84
2023-03-30T17:50:47.286Z,6.75
2023-03-30T17:53:39.404Z,6.69
2023-03-30T17:56:07.765Z,6.54
2023-03-30T17:58:36.441Z,6.42
2023-03-30T18:01:06.906Z,6.36
2023-03-30T18:03:35.307Z,6.28
2023-03-30T18:06:02.720Z,6.18
2023-03-30T18:08:29.627Z,6.14
2023-03-30T18:10:58.719Z,6.10
2023-03-30T18:13:27.686Z,6.01
2023-03-30T18:15:56.214Z,5.93
2023-03-30T18:18:26.353Z,5.92
2023-03-30T18:20:59.231Z,5.85
2023-03-30T18:23:26.226Z,5.70
2023-03-30T18:25:53.174Z,5.58
2023-03-30T18:28:25.505Z,5.57
2023-03-30T18:30:55.390Z,5.63
2023-03-30T18:33:27.852Z,5.52
2023-03-30T18:35:57.201Z,5.53
2023-03-30T18:38:25.258Z,5.34
2023-03-30T18:40:58.543Z,5.29
2023-03-30T18:43:28.758Z,5.15
2023-03-30T18:46:01.080Z,5.08
2023-03-30T18:48:29.086Z,5.00
2023-03-30T18:50:57.099Z,4.95
2023-03-30T18:53:27.245Z,4.68
2023-03-30T18:56:00.680Z,4.71
2023-03-30T18:58:31.469Z,4.57
2023-03-30T19:00:58.370Z,4.52
2023-03-30T19:03:28.073Z,4.44
2023-03-30T19:05:54.912Z,4.34
2023-03-30T19:08:24.119Z,4.33
2023-03-30T19:10:53.244Z,4.33
2023-03-30T19:13:21.526Z,4.24
2023-03-30T19:15:49.826Z,4.14
2023-03-30T19:18:18.003Z,4.07
2023-03-30T19:20:50.008Z,4.05
2023-03-30T19:23:31.011Z,4.14
2023-03-30T19:26:07.536Z,4.07
2023-03-30T19:28:34.766Z,3.94
2023-03-30T19:31:13.362Z,3.83
2023-03-30T19:33:40.696Z,3.81
2023-03-30T19:36:08.295Z,3.68
2023-03-30T19:38:35.914Z,3.71
2023-03-30T19:41:04.759Z,3.69
2023-03-30T19:43:31.966Z,3.72
2023-03-30T19:45:58.917Z,3.70
2023-03-30T19:48:27.682Z,3.80
2023-03-30T19:50:54.474Z,3.78
2023-03-30T19:53:21.800Z,3.88
2023-03-30T19:55:48.556Z,3.92
2023-03-30T19:58:15.502Z,4.02
2023-03-30T20:00:43.851Z,4.05
2023-03-30T20:03:12.588Z,4.08
2023-03-30T20:05:39.908Z,4.00
2023-03-30T20:08:17.272Z,4.08
2023-03-30T20:10:49.354Z,4.05
2023-03-30T20:13:17.225Z,4.09
2023-03-30T20:15:45.352Z,4.07
2023-03-30T20:18:12.275Z,4.19
2023-03-30T20:20:39.353Z,4.07
2023-03-30T20:23:06.347Z,4.06
2023-03-30T20:25:33.256Z,3.91
2023-03-30T20:28:00.239Z,3.95
2023-03-30T20:30:27.188Z,3.95
2023-03-30T20:33:06.809Z,4.08
2023-03-30T20:35:38.956Z,4.12
2023-03-30T20:38:08.319Z,4.03
2023-03-30T20:40:36.050Z,4.07
2023-03-30T20:43:03.686Z,4.06
2023-03-30T20:45:31.878Z,4.15
2023-03-30T20:47:59.842Z,4.20
2023-03-30T20:50:27.325Z,4.21
2023-03-30T20:52:54.133Z,4.29
2023-03-30T20:55:21.481Z,4.31
2023-03-30T20:57:48.552Z,4.33
2023-03-30T21:00:15.996Z,4.28
2023-03-30T21:02:46.788Z,4.38
2023-03-30T21:05:14.450Z,4.37
2023-03-30T21:07:42.369Z,4.35
2023-03-30T21:10:09.997Z,4.41
2023-03-30T21:12:36.878Z,4.45
2023-03-30T21:15:04.028Z,4.51
2023-03-30T21:17:31.063Z,4.49
2023-03-30T21:19:57.827Z,4.52
2023-03-30T21:22:25.235Z,4.58
2023-03-30T21:24:53.001Z,4.68
2023-03-30T21:27:19.774Z,4.68
2023-03-30T21:29:47.234Z,4.67
2023-03-30T21:32:14.188Z,4.70
2023-03-30T21:34:41.104Z,4.78
2023-03-30T21:37:09.105Z,4.88
2023-03-30T21:39:36.243Z,4.86
2023-03-30T21:42:05.231Z,4.99
2023-03-30T21:44:36.024Z,4.97
2023-03-30T21:47:03.239Z,4.82
2023-03-30T21:49:30.078Z,4.89
2023-03-30T21:51:57.050Z,4.98
2023-03-30T21:54:24.456Z,4.90
2023-03-30T21:56:51.343Z,4.93
2023-03-30T21:59:18.985Z,4.93
2023-03-30T22:01:46.091Z,4.91
2023-03-30T22:04:12.946Z,4.90
2023-03-30T22:06:39.783Z,4.94
2023-03-30T22:09:06.854Z,4.82
2023-03-30T22:11:33.776Z,4.82
2023-03-30T22:14:00.840Z,4.95
2023-03-30T22:16:31.613Z,4.92
2023-03-30T22:18:58.960Z,4.92
2023-03-30T22:21:34.606Z,4.94
2023-03-30T22:24:07.248Z,4.90
2023-03-30T22:26:35.978Z,4.87
2023-03-30T22:29:04.269Z,4.87
2023-03-30T22:31:31.236Z,4.82
2023-03-30T22:33:58.258Z,4.95
2023-03-30T22:36:30.004Z,4.90
2023-03-30T22:38:59.121Z,5.04
2023-03-30T22:41:36.440Z,5.10
2023-03-30T22:44:03.948Z,5.11
2023-03-30T22:46:37.203Z,5.07
2023-03-30T22:49:08.973Z,5.01
2023-03-30T22:51:39.118Z,5.05
2023-03-30T22:54:06.434Z,4.95
2023-03-30T22:56:33.396Z,4.99
2023-03-30T22:59:01.343Z,4.97
2023-03-30T23:01:32.089Z,4.90
2023-03-30T23:03:59.997Z,4.85
2023-03-30T23:06:27.203Z,4.90
2023-03-30T23:08:54.618Z,4.86
2023-03-30T23:11:21.696Z,4.91
2023-03-30T23:13:49.566Z,4.84
2023-03-30T23:16:16.530Z,4.97
2023-03-30T23:18:43.348Z,4.87
2023-03-30T23:21:11.176Z,4.74
2023-03-30T23:23:38.531Z,4.80
2023-03-30T23:26:09.722Z,4.77
2023-03-30T23:28:39.532Z,4.70
2023-03-30T23:31:12.264Z,4.79
2023-03-30T23:33:41.103Z,4.75
2023-03-30T23:36:09.065Z,4.62
2023-03-30T23:38:37.592Z,4.55
2023-03-30T23:41:06.423Z,4.45
2023-03-30T23:43:33.249Z,4.31
2023-03-30T23:46:00.213Z,4.32
2023-03-30T23:48:27.117Z,4.29
2023-03-30T23:50:54.066Z,4.14
2023-03-30T23:53:21.050Z,4.23
2023-03-30T23:55:50.069Z,4.19
2023-03-30T23:58:18.314Z,4.13
